MSC Annamaria — H3HN — position and weather

sailwx.info

Track history (hours):
 
Tides and Currents Weather Stations Pressure Air Temp Water Temp Dewpoint Dewpoint Depression Visibility Wind Speed Wind Dir Waves Ship Positions

MSC Annamaria

Last reported at 2017-Apr-10 17:32 UTC. Time now 2017-Apr-30 16:56 UTC.
Position N 40°57' E 028°60'.
Warning: this ship's position is 19 days out of date.

Length 188 m; draft 5.9 m.

Type: Ship (hazmat cat A). MMSI: 353852000.

Date/timePositionNaut miles runAvg speedWind from/ knotsBaromVisibWave heightAir tempDewpointWater temp
2017-Apr-10 17:32N 40°57' E 028°60'1 7.0
2017-Apr-10 17:25N 40°57' E 028°60'1 3.3
2017-Apr-10 16:59N 40°55' E 029°00'0 0.8
2017-Apr-10 16:28N 40°56' E 029°00'2 4.0
2017-Apr-10 15:55N 40°56' E 028°57'2 4.3
2017-Apr-10 15:29N 40°58' E 028°56'1 0.3
2017-Apr-10 12:03N 40°59' E 028°56'0 0.0
2017-Apr-10 11:57N 40°59' E 028°56'0 0.0
2017-Apr-10 09:49N 40°59' E 028°56'0 0.0
2017-Apr-10 08:46N 40°59' E 028°56'0 0.0
2017-Apr-10 08:28N 40°59' E 028°56'0 0.1
2017-Apr-10 07:59N 40°59' E 028°56'0 0.0
2017-Apr-10 07:29N 40°59' E 028°56'0 0.1
2017-Apr-10 07:00N 40°59' E 028°56'0 0.1
2017-Apr-10 06:30N 40°59' E 028°56'0 0.0
2017-Apr-10 05:53N 40°59' E 028°56'0 0.1
2017-Apr-10 05:11N 40°58' E 028°56'0 0.1
2017-Apr-10 05:00N 40°58' E 028°56'0 0.1
2017-Apr-10 02:54N 40°58' E 028°56'0 0.0
2017-Apr-10 02:29N 40°58' E 028°56'0 0.1
2017-Apr-10 01:43N 40°58' E 028°56'0 0.0
2017-Apr-10 01:28N 40°58' E 028°56'0 0.0
2017-Apr-09 23:48N 40°58' E 028°56'0 0.1
2017-Apr-09 23:24N 40°58' E 028°56'0 0.0
2017-Apr-09 22:59N 40°58' E 028°56'0 0.0
2017-Apr-09 21:08N 40°58' E 028°56'0 0.0
2017-Apr-09 21:00N 40°58' E 028°56'0 0.0
2017-Apr-09 20:28N 40°58' E 028°56'0 0.0
2017-Apr-09 19:54N 40°58' E 028°56'0 0.1
2017-Apr-09 19:12N 40°58' E 028°56'0 0.1
2017-Apr-09 19:00N 40°58' E 028°56'0 0.0
2017-Apr-08 18:41N 40°59' E 028°56'0 0.0
2017-Apr-08 18:29N 40°59' E 028°56'0 0.1
2017-Apr-08 16:49N 40°59' E 028°56'1 4.3
2017-Apr-08 16:31N 40°57' E 028°57'611.7
2017-Apr-08 16:01N 40°52' E 029°00'5 8.8
2017-Apr-08 15:27N 40°47' E 029°01'2 3.4
2017-Apr-08 15:00N 40°46' E 029°00'1 1.1
2017-Apr-08 14:01N 40°45' E 028°59'1 1.3
2017-Apr-08 13:30N 40°45' E 028°58'1 1.3
2017-Apr-08 13:00N 40°45' E 028°57'1 1.2
2017-Apr-08 12:31N 40°45' E 028°56'1 1.3
2017-Apr-08 11:51N 40°45' E 028°55'5 1.0
2017-Apr-08 06:45N 40°41' E 028°51'0 1.1
2017-Apr-08 06:27N 40°41' E 028°51'2 0.5
2017-Apr-08 02:49N 40°40' E 028°49'0 0.3
2017-Apr-08 01:48N 40°40' E 028°49'0 0.6
2017-Apr-08 01:29N 40°40' E 028°49'0 0.7
2017-Apr-08 00:49N 40°41' E 028°48'1 1.0
2017-Apr-08 00:09N 40°41' E 028°48'0 0.8
2017-Apr-07 23:56N 40°42' E 028°48'2 0.3
2017-Apr-07 18:55N 40°43' E 028°47'0 0.1
2017-Apr-07 18:21N 40°43' E 028°46'7 0.9
2017-Apr-07 10:07N 40°50' E 028°49'1 0.3
2017-Apr-07 06:14N 40°49' E 028°48'0 0.8
2017-Apr-07 05:36N 40°48' E 028°47'0 0.6
2017-Apr-07 05:28N 40°48' E 028°47'0 0.6
2017-Apr-07 04:56N 40°48' E 028°47'0 0.6
2017-Apr-07 04:31N 40°48' E 028°47'0 0.6
2017-Apr-07 03:50N 40°47' E 028°47'0 0.4
2017-Apr-07 02:36N 40°47' E 028°48'0 0.4
2017-Apr-07 02:28N 40°47' E 028°48'0 0.3
2017-Apr-07 01:54N 40°47' E 028°47'1 0.6
2017-Apr-07 00:11N 40°46' E 028°46'0 0.9
2017-Apr-06 23:49N 40°47' E 028°46'0 0.8
2017-Apr-06 23:30N 40°47' E 028°45'23110.6
2017-Apr-06 01:36N 37°37' E 025°53'113.9
2017-Apr-06 01:30N 37°36' E 025°54'30813.3
2017-Apr-05 02:19N 34°52' E 031°18'414.5
2017-Apr-05 02:00N 34°51' E 031°23'714.4
2017-Apr-05 01:31N 34°49' E 031°31'714.4
2017-Apr-05 01:00N 34°47' E 031°40'714.4
2017-Apr-05 00:31N 34°44' E 031°48'714.5
2017-Apr-05 00:00N 34°42' E 031°57'714.3
2017-Apr-04 23:31N 34°40' E 032°05'714.2
2017-Apr-04 23:01N 34°38' E 032°13'714.1
2017-Apr-04 22:31N 34°36' E 032°21'714.2
2017-Apr-04 22:00N 34°34' E 032°29'713.9
2017-Apr-04 21:30N 34°31' E 032°38'713.8
2017-Apr-04 21:00N 34°29' E 032°45'714.0
2017-Apr-04 20:30N 34°27' E 032°54'713.8
2017-Apr-04 20:00N 34°25' E 033°02'713.6
2017-Apr-04 19:30N 34°23' E 033°10'713.7
2017-Apr-04 19:00N 34°21' E 033°17'713.8
2017-Apr-04 18:30N 34°20' E 033°26'714.3
2017-Apr-04 18:00N 34°18' E 033°34'714.5
2017-Apr-04 17:30N 34°16' E 033°42'714.6
2017-Apr-04 17:00N 34°14' E 033°51'714.7
2017-Apr-04 16:30N 34°12' E 033°60'714.7
2017-Apr-04 16:00N 34°10' E 034°08'714.2
2017-Apr-04 15:31N 34°08' E 034°16'713.8
2017-Apr-04 15:00N 34°06' E 034°24'713.8
2017-Apr-04 14:29N 34°04' E 034°33'1413.8
2017-Apr-04 13:30N 34°01' E 034°49'713.6
2017-Apr-04 13:01N 33°59' E 034°56'713.5
2017-Apr-04 12:30N 33°57' E 035°04'713.7
2017-Apr-04 12:00N 33°55' E 035°12'713.7
2017-Apr-04 11:30N 33°55' E 035°20'713.9
2017-Apr-04 11:01N 33°55' E 035°29'  
Track history (hours):
 
Tides and Currents Weather Stations Pressure Air Temp Water Temp Dewpoint Dewpoint Depression Visibility Wind Speed Wind Dir Waves Ship Positions

MSC Annamaria

Last reported at 2017-Apr-10 17:32 UTC. Time now 2017-Apr-30 16:56 UTC.
Position N 40°57' E 028°60'.
Warning: this ship's position is 19 days out of date.

Length 188 m; draft 5.9 m.

Type: Ship (hazmat cat A). MMSI: 353852000.

Date/timePositionNaut miles runAvg speedWind from/ knotsBaromVisibWave heightAir tempDewpointWater temp
2017-Apr-10 17:32N 40°57' E 028°60'1 7.0
2017-Apr-10 17:25N 40°57' E 028°60'1 3.3
2017-Apr-10 16:59N 40°55' E 029°00'0 0.8
2017-Apr-10 16:28N 40°56' E 029°00'2 4.0
2017-Apr-10 15:55N 40°56' E 028°57'2 4.3
2017-Apr-10 15:29N 40°58' E 028°56'1 0.3
2017-Apr-10 12:03N 40°59' E 028°56'0 0.0
2017-Apr-10 11:57N 40°59' E 028°56'0 0.0
2017-Apr-10 09:49N 40°59' E 028°56'0 0.0
2017-Apr-10 08:46N 40°59' E 028°56'0 0.0
2017-Apr-10 08:28N 40°59' E 028°56'0 0.1
2017-Apr-10 07:59N 40°59' E 028°56'0 0.0
2017-Apr-10 07:29N 40°59' E 028°56'0 0.1
2017-Apr-10 07:00N 40°59' E 028°56'0 0.1
2017-Apr-10 06:30N 40°59' E 028°56'0 0.0
2017-Apr-10 05:53N 40°59' E 028°56'0 0.1
2017-Apr-10 05:11N 40°58' E 028°56'0 0.1
2017-Apr-10 05:00N 40°58' E 028°56'0 0.1
2017-Apr-10 02:54N 40°58' E 028°56'0 0.0
2017-Apr-10 02:29N 40°58' E 028°56'0 0.1
2017-Apr-10 01:43N 40°58' E 028°56'0 0.0
2017-Apr-10 01:28N 40°58' E 028°56'0 0.0
2017-Apr-09 23:48N 40°58' E 028°56'0 0.1
2017-Apr-09 23:24N 40°58' E 028°56'0 0.0
2017-Apr-09 22:59N 40°58' E 028°56'0 0.0
2017-Apr-09 21:08N 40°58' E 028°56'0 0.0
2017-Apr-09 21:00N 40°58' E 028°56'0 0.0
2017-Apr-09 20:28N 40°58' E 028°56'0 0.0
2017-Apr-09 19:54N 40°58' E 028°56'0 0.1
2017-Apr-09 19:12N 40°58' E 028°56'0 0.1
2017-Apr-09 19:00N 40°58' E 028°56'0 0.0
2017-Apr-08 18:41N 40°59' E 028°56'0 0.0
2017-Apr-08 18:29N 40°59' E 028°56'0 0.1
2017-Apr-08 16:49N 40°59' E 028°56'1 4.3
2017-Apr-08 16:31N 40°57' E 028°57'611.7
2017-Apr-08 16:01N 40°52' E 029°00'5 8.8
2017-Apr-08 15:27N 40°47' E 029°01'2 3.4
2017-Apr-08 15:00N 40°46' E 029°00'1 1.1
2017-Apr-08 14:01N 40°45' E 028°59'1 1.3
2017-Apr-08 13:30N 40°45' E 028°58'1 1.3
2017-Apr-08 13:00N 40°45' E 028°57'1 1.2
2017-Apr-08 12:31N 40°45' E 028°56'1 1.3
2017-Apr-08 11:51N 40°45' E 028°55'5 1.0
2017-Apr-08 06:45N 40°41' E 028°51'0 1.1
2017-Apr-08 06:27N 40°41' E 028°51'2 0.5
2017-Apr-08 02:49N 40°40' E 028°49'0 0.3
2017-Apr-08 01:48N 40°40' E 028°49'0 0.6
2017-Apr-08 01:29N 40°40' E 028°49'0 0.7
2017-Apr-08 00:49N 40°41' E 028°48'1 1.0
2017-Apr-08 00:09N 40°41' E 028°48'0 0.8
2017-Apr-07 23:56N 40°42' E 028°48'2 0.3
2017-Apr-07 18:55N 40°43' E 028°47'0 0.1
2017-Apr-07 18:21N 40°43' E 028°46'7 0.9
2017-Apr-07 10:07N 40°50' E 028°49'1 0.3
2017-Apr-07 06:14N 40°49' E 028°48'0 0.8
2017-Apr-07 05:36N 40°48' E 028°47'0 0.6
2017-Apr-07 05:28N 40°48' E 028°47'0 0.6
2017-Apr-07 04:56N 40°48' E 028°47'0 0.6
2017-Apr-07 04:31N 40°48' E 028°47'0 0.6
2017-Apr-07 03:50N 40°47' E 028°47'0 0.4
2017-Apr-07 02:36N 40°47' E 028°48'0 0.4
2017-Apr-07 02:28N 40°47' E 028°48'0 0.3
2017-Apr-07 01:54N 40°47' E 028°47'1 0.6
2017-Apr-07 00:11N 40°46' E 028°46'0 0.9
2017-Apr-06 23:49N 40°47' E 028°46'0 0.8
2017-Apr-06 23:30N 40°47' E 028°45'23110.6
2017-Apr-06 01:36N 37°37' E 025°53'113.9
2017-Apr-06 01:30N 37°36' E 025°54'30813.3
2017-Apr-05 02:19N 34°52' E 031°18'414.5
2017-Apr-05 02:00N 34°51' E 031°23'714.4
2017-Apr-05 01:31N 34°49' E 031°31'714.4
2017-Apr-05 01:00N 34°47' E 031°40'714.4
2017-Apr-05 00:31N 34°44' E 031°48'714.5
2017-Apr-05 00:00N 34°42' E 031°57'714.3
2017-Apr-04 23:31N 34°40' E 032°05'714.2
2017-Apr-04 23:01N 34°38' E 032°13'714.1
2017-Apr-04 22:31N 34°36' E 032°21'714.2
2017-Apr-04 22:00N 34°34' E 032°29'713.9
2017-Apr-04 21:30N 34°31' E 032°38'713.8
2017-Apr-04 21:00N 34°29' E 032°45'714.0
2017-Apr-04 20:30N 34°27' E 032°54'713.8
2017-Apr-04 20:00N 34°25' E 033°02'713.6
2017-Apr-04 19:30N 34°23' E 033°10'713.7
2017-Apr-04 19:00N 34°21' E 033°17'713.8
2017-Apr-04 18:30N 34°20' E 033°26'714.3
2017-Apr-04 18:00N 34°18' E 033°34'714.5
2017-Apr-04 17:30N 34°16' E 033°42'714.6
2017-Apr-04 17:00N 34°14' E 033°51'714.7
2017-Apr-04 16:30N 34°12' E 033°60'714.7
2017-Apr-04 16:00N 34°10' E 034°08'714.2
2017-Apr-04 15:31N 34°08' E 034°16'713.8
2017-Apr-04 15:00N 34°06' E 034°24'713.8
2017-Apr-04 14:29N 34°04' E 034°33'1413.8
2017-Apr-04 13:30N 34°01' E 034°49'713.6
2017-Apr-04 13:01N 33°59' E 034°56'713.5
2017-Apr-04 12:30N 33°57' E 035°04'713.7
2017-Apr-04 12:00N 33°55' E 035°12'713.7
2017-Apr-04 11:30N 33°55' E 035°20'713.9
2017-Apr-04 11:01N 33°55' E 035°29'  

Dump ship's entire track history